LPFRLPPT

Guest
Details From LPFR - Faro
To LPPT - Lisboa
Flight Number -
Tags decoded
Created
Modified
Stats Distance 119 nm / 221 km
Max Altitude 0 ft / 0 m
Waypoints 2
Social Downloads 0
Likes 0
Share VATSIM

Download

Looking for another format? Having issues loading an existing format? Contact us
Advertisement - Login to hide

Notes

Requested: LPFR ODEMIU8A LPPT Unmatched points: ODEMIU8A

Route

LPFR LPPT

ID Type Via Altitude Latitude Longitude Leg Dist Tot Dist Heading (true) Name
O LPFR APT - 0 ft / 0 m 37.01534˚ -7.97233˚ - 0 nm - Faro
O LPPT APT - 0 ft / 0 m 38.77856˚ -9.13515˚ 119 nm 119 nm 333° / 332° Lisboa

Altitude Profile

Advertisement - Login to hide

LPFR

Details ICAO LPFR (FAO)
Name Faro
Region Portugal
Timezone Europe/Lisbon (UTC+1.0)
Stats Elevation 24 ft / 7 m (AMSL)
Location 37.015336° -7.972327°
Runways 1
Magnetic Variation 1.865° W

METAR

LPFR 191300Z 21011KT CAVOK 23/17 Q1016

Decode

TAF

TAF LPFR 191100Z 1912/2012 19008KT CAVOK BECMG 1912/1915 23012KT BECMG 1917/1919 30010KT

Decode

Departure Runways

ID Width Length Bearing (true) Bearing (mag) Surface Threshold Offset Overrun Length
10 148 ft / 45 m 8,148 ft / 2,484 m 100.08° 101.94° Asphalt 148 ft / 45 m 0 ft / 0 m
28 148 ft / 45 m 8,148 ft / 2,484 m 280.10° 281.96° Asphalt 148 ft / 45 m 0 ft / 0 m

LPPT

Details ICAO LPPT (LIS)
Name Lisboa
Region Portugal
Timezone Europe/Lisbon (UTC+1.0)
Stats Elevation 374 ft / 114 m (AMSL)
Location 38.778559° -9.135146°
Runways 2
Magnetic Variation 2.290° W

METAR

LPPT 191300Z 34011KT 310V010 9999 BKN032 24/15 Q1018

Decode

TAF

TAF LPPT 191100Z 1912/2018 32013KT 9999 SCT030 PROB30 TEMPO 1912/1918 34017G27KT BECMG 1921/1923 32008KT SCT012 PROB40 TEMPO 2001/2008 BKN008 BECMG 2008/2011 CAVOK BECMG 2012/2015 33015KT TEMPO 2012/2018 33018G28KT

Decode

Destination Runways

ID Width Length Bearing (true) Bearing (mag) Surface Threshold Offset Overrun Length
03 148 ft / 45 m 12,518 ft / 3,815 m 22.70° 24.99° Asphalt 296 ft / 90 m 0 ft / 0 m
17 148 ft / 45 m 7,922 ft / 2,415 m 168.38° 170.67° Asphalt 0 ft / 0 m 0 ft / 0 m
21 148 ft / 45 m 12,518 ft / 3,815 m 202.72° 205.01° Asphalt 1,969 ft / 600 m 0 ft / 0 m
35 148 ft / 45 m 7,922 ft / 2,415 m 348.38° 350.67° Asphalt 492 ft / 150 m 0 ft / 0 m

Approach Navaids

Runway Type Ident Frequency Range Bearing (true) Bearing (mag) Slope Elevation
03 Localiser ILI 109.10 MHz 18 nm / 33 km 22.74° 25.03° - 335 ft / 102 m (AMSL)
03 Glidescope ILI 109.10 MHz 10 nm / 19 km 22.71° 25.00° 3.00° 419 ft / 128 m (AMSL)
03 DME ILI 109.10 MHz 18 nm / 33 km - - - 419 ft / 128 m (AMSL)
21 Localiser ILB 109.50 MHz 18 nm / 33 km 202.59° 204.88° - 335 ft / 102 m (AMSL)
21 Glidescope ILB 109.50 MHz 10 nm / 19 km 202.71° 205.00° 3.00° 423 ft / 129 m (AMSL)
21 DME ILB 109.50 MHz 18 nm / 33 km - - - 423 ft / 129 m (AMSL)

Popular Alternatives